Time;durP1;ratioP1;P1;durP2;ratioP2;P2;SDS_P1;SDS_P2;PMS_P1;PMS_P2;Temp;Humidity;BMP_temperature;BMP_pressure;BME280_temperature;BME280_humidity;BME280_pressure;Samples;Min_cycle;Max_cycle;Signal;HPM_P1;HPM_P2
2023/07/01 00:01:39;;;;;;;12.80;6.40;;;;;;;17.46;93.88;99540.20;110370;1268;22189;-55
2023/07/01 00:04:10;;;;;;;14.00;5.60;;;;;;;17.45;93.68;99539.20;110351;1268;22885;-57
2023/07/01 00:06:42;;;;;;;13.10;5.70;;;;;;;17.42;93.56;99539.27;110354;1268;22274;-57
2023/07/01 00:09:13;;;;;;;19.10;8.10;;;;;;;17.39;93.61;99541.34;110402;1268;22302;-58
2023/07/01 00:11:43;;;;;;;15.90;7.00;;;;;;;17.37;93.93;99541.20;110383;1264;23610;-55
2023/07/01 00:14:14;;;;;;;14.90;7.70;;;;;;;17.35;93.52;99541.06;110368;1260;23115;-58
2023/07/01 00:16:45;;;;;;;10.80;6.20;;;;;;;17.31;93.53;99541.80;110390;1265;22455;-56
2023/07/01 00:19:17;;;;;;;13.30;6.40;;;;;;;17.28;93.49;99543.33;110403;1268;22579;-55
2023/07/01 00:21:48;;;;;;;12.30;5.90;;;;;;;17.25;93.34;99543.25;110405;1264;22848;-59
2023/07/01 00:24:19;;;;;;;14.10;6.80;;;;;;;17.21;93.24;99544.35;110357;1262;22323;-57
2023/07/01 00:26:50;;;;;;;16.80;6.60;;;;;;;17.18;93.22;99533.22;110375;1262;22191;-57
2023/07/01 00:29:21;;;;;;;18.00;7.20;;;;;;;17.16;93.10;99532.55;110372;1260;22334;-57
2023/07/01 00:31:51;;;;;;;16.80;8.10;;;;;;;17.13;93.10;99536.97;110414;1268;22220;-56
2023/07/01 00:34:22;;;;;;;13.90;7.10;;;;;;;17.09;93.25;99537.24;110393;1268;22192;-57
2023/07/01 00:36:53;;;;;;;17.60;8.30;;;;;;;17.06;93.28;99535.44;110399;1268;23298;-56
2023/07/01 00:39:24;;;;;;;16.20;8.00;;;;;;;17.05;93.32;99536.83;110369;1264;22380;-57
2023/07/01 00:41:55;;;;;;;21.30;11.00;;;;;;;17.04;93.42;99539.09;110391;1268;22153;-57
2023/07/01 00:44:26;;;;;;;19.50;9.80;;;;;;;17.02;93.75;99543.87;110401;1268;22318;-58
2023/07/01 00:46:57;;;;;;;21.80;11.70;;;;;;;17.00;94.09;99548.73;110363;1268;22160;-56
2023/07/01 00:49:28;;;;;;;18.10;11.00;;;;;;;16.97;94.61;99550.23;110380;1272;22207;-58
2023/07/01 00:52:00;;;;;;;20.90;11.20;;;;;;;16.94;94.69;99550.59;110349;1264;22174;-55
2023/07/01 00:54:33;;;;;;;20.00;9.30;;;;;;;16.90;94.60;99547.52;110333;1268;22317;-57
2023/07/01 00:57:05;;;;;;;16.70;8.30;;;;;;;16.86;94.33;99548.02;110359;1260;23241;-59
2023/07/01 00:59:36;;;;;;;15.40;8.50;;;;;;;16.77;94.01;99546.89;110383;1264;22334;-55
2023/07/01 01:02:11;;;;;;;19.60;9.60;;;;;;;16.67;93.77;99548.23;110357;1268;22414;-58
2023/07/01 01:04:48;;;;;;;20.80;10.00;;;;;;;16.60;94.05;99544.36;110392;1268;23371;-57
2023/07/01 01:07:25;;;;;;;19.90;10.90;;;;;;;16.52;94.14;99543.61;110370;1268;22322;-58
2023/07/01 01:10:03;;;;;;;24.60;12.90;;;;;;;16.44;94.75;99537.91;110391;1261;22869;-59
2023/07/01 01:12:36;;;;;;;19.30;11.60;;;;;;;16.41;95.06;99534.59;110317;1268;22334;-56
2023/07/01 01:15:09;;;;;;;23.20;12.60;;;;;;;16.41;95.11;99531.58;110360;1265;23201;-57
2023/07/01 01:17:44;;;;;;;28.00;13.90;;;;;;;16.40;95.29;99528.93;110385;1268;23781;-57
2023/07/01 01:20:20;;;;;;;22.30;13.60;;;;;;;16.41;95.42;99522.71;110375;1260;23405;-58
2023/07/01 01:22:56;;;;;;;23.10;13.10;;;;;;;16.43;95.51;99522.63;110392;1269;22227;-55
2023/07/01 01:25:35;;;;;;;18.50;11.00;;;;;;;16.44;95.13;99517.80;108000;1270;22640;-55
2023/07/01 01:28:07;;;;;;;22.20;12.50;;;;;;;16.41;94.75;99519.95;106426;1276;25447;-55
2023/07/01 01:30:39;;;;;;;22.30;11.90;;;;;;;16.38;94.88;99516.05;106347;1268;22598;-56
2023/07/01 01:33:10;;;;;;;20.30;12.20;;;;;;;16.39;94.94;99514.16;110369;1260;22178;-56
2023/07/01 01:35:41;;;;;;;25.40;13.20;;;;;;;16.38;94.51;99512.98;110388;1262;22351;-58
2023/07/01 01:38:19;;;;;;;19.60;10.50;;;;;;;16.37;94.43;99507.52;110415;1260;22319;-58
2023/07/01 01:40:57;;;;;;;19.90;12.40;;;;;;;16.36;94.37;99503.64;110386;1261;22164;-55
2023/07/01 01:43:37;;;;;;;21.90;12.90;;;;;;;16.30;94.36;99511.67;110379;1265;22318;-56
2023/07/01 01:46:10;;;;;;;24.20;11.50;;;;;;;16.25;94.47;99507.30;110446;1268;22277;-58
2023/07/01 01:48:42;;;;;;;24.20;11.40;;;;;;;16.22;94.52;99513.70;110360;1268;22924;-57
2023/07/01 01:51:16;;;;;;;22.90;13.40;;;;;;;16.19;94.65;99512.81;110355;1264;22926;-57
2023/07/01 01:53:48;;;;;;;20.30;11.70;;;;;;;16.18;94.77;99509.80;110397;1268;22166;-57
2023/07/01 01:56:19;;;;;;;22.80;13.90;;;;;;;16.19;94.89;99514.65;108489;1269;25492;-56
2023/07/01 01:58:50;;;;;;;23.30;13.00;;;;;;;16.21;95.58;99512.18;110410;1269;22200;-58
2023/07/01 02:01:21;;;;;;;22.60;13.20;;;;;;;16.24;95.91;99518.31;110397;1268;22267;-56
2023/07/01 02:03:52;;;;;;;26.10;16.00;;;;;;;16.27;96.62;99524.06;110398;1268;22196;-58
2023/07/01 02:06:23;;;;;;;32.70;15.40;;;;;;;16.30;97.13;99526.88;110465;1268;23468;-57
2023/07/01 02:08:54;;;;;;;30.70;16.90;;;;;;;16.35;97.48;99530.12;110438;1268;22329;-58
2023/07/01 02:11:25;;;;;;;27.00;15.70;;;;;;;16.40;97.71;99530.88;110356;1268;22400;-58
2023/07/01 02:13:56;;;;;;;27.10;17.00;;;;;;;16.45;97.98;99534.95;108354;1269;22533;-56
2023/07/01 02:16:28;;;;;;;25.40;16.10;;;;;;;16.48;97.97;99536.79;106445;1262;22520;-55
2023/07/01 02:18:59;;;;;;;28.40;16.90;;;;;;;16.51;98.08;99540.70;106422;1273;22520;-55
2023/07/01 02:21:30;;;;;;;29.70;19.30;;;;;;;16.54;98.17;99540.71;110422;1262;22217;-57
2023/07/01 02:24:01;;;;;;;38.00;18.80;;;;;;;16.57;98.55;99539.69;110406;1262;23260;-58
2023/07/01 02:26:32;;;;;;;29.90;17.80;;;;;;;16.59;99.00;99539.45;110420;1269;22282;-57
2023/07/01 02:29:03;;;;;;;29.50;17.10;;;;;;;16.61;99.14;99540.91;110416;1260;22173;-57
2023/07/01 02:31:34;;;;;;;28.80;17.00;;;;;;;16.63;99.61;99538.58;110438;1276;22211;-58
2023/07/01 02:34:05;;;;;;;31.40;17.10;;;;;;;16.63;99.77;99538.91;110411;1264;22385;-58
2023/07/01 02:36:40;;;;;;;32.70;17.70;;;;;;;16.65;99.86;99535.05;110435;1264;22398;-57
2023/07/01 02:39:11;;;;;;;29.80;16.50;;;;;;;16.67;99.96;99536.85;110326;1270;22200;-59
2023/07/01 02:41:42;;;;;;;32.60;17.60;;;;;;;16.71;100.00;99534.67;110412;1268;22176;-57
2023/07/01 02:44:12;;;;;;;35.90;17.90;;;;;;;16.73;100.00;99533.59;110361;1260;22293;-58
2023/07/01 02:46:44;;;;;;;35.60;17.50;;;;;;;16.73;100.00;99534.80;110433;1276;22154;-58
2023/07/01 02:49:15;;;;;;;30.60;17.30;;;;;;;16.75;100.00;99529.54;110410;1268;22202;-58
2023/07/01 02:51:46;;;;;;;37.40;18.90;;;;;;;16.77;100.00;99537.80;110430;1265;22176;-56
2023/07/01 02:54:17;;;;;;;36.50;18.50;;;;;;;16.80;100.00;99532.58;110374;1268;22197;-58
2023/07/01 02:56:47;;;;;;;36.70;19.20;;;;;;;16.83;100.00;99532.67;110447;1264;22701;-56
2023/07/01 02:59:18;;;;;;;34.80;17.00;;;;;;;16.85;100.00;99531.98;110418;1268;23131;-59
2023/07/01 03:01:49;;;;;;;35.00;18.10;;;;;;;16.88;100.00;99532.19;110415;1276;22153;-56
2023/07/01 03:04:20;;;;;;;31.80;17.90;;;;;;;16.91;100.00;99526.95;110414;1268;22837;-59
2023/07/01 03:06:51;;;;;;;37.20;16.60;;;;;;;16.95;100.00;99525.09;110384;1268;22191;-61
2023/07/01 03:09:22;;;;;;;36.50;17.60;;;;;;;17.00;100.00;99519.55;110394;1268;22190;-56
2023/07/01 03:11:53;;;;;;;34.00;17.10;;;;;;;17.06;100.00;99517.45;110398;1265;22292;-57
2023/07/01 03:14:24;;;;;;;34.80;17.10;;;;;;;17.09;100.00;99521.64;110421;1269;22228;-56
2023/07/01 03:16:56;;;;;;;34.00;17.30;;;;;;;17.10;100.00;99530.23;110429;1276;22317;-57
2023/07/01 03:19:26;;;;;;;35.50;18.20;;;;;;;17.12;100.00;99529.95;110402;1268;22934;-57
2023/07/01 03:21:58;;;;;;;34.90;17.20;;;;;;;17.13;100.00;99517.27;110430;1268;22162;-59
2023/07/01 03:24:33;;;;;;;33.50;16.10;;;;;;;17.14;100.00;99517.46;110428;1262;22300;-56
2023/07/01 03:27:06;;;;;;;38.30;19.80;;;;;;;17.14;100.00;99516.48;110446;1264;22362;-59
2023/07/01 03:29:36;;;;;;;31.10;17.30;;;;;;;17.15;100.00;99515.49;110420;1264;22225;-56
2023/07/01 03:32:09;;;;;;;32.30;17.00;;;;;;;17.17;100.00;99515.91;110395;1260;23077;-56
2023/07/01 03:34:40;;;;;;;35.20;17.70;;;;;;;17.20;100.00;99516.05;108662;1269;22528;-56
2023/07/01 03:37:12;;;;;;;32.50;17.10;;;;;;;17.23;100.00;99520.05;110433;1272;22199;-57
2023/07/01 03:39:42;;;;;;;38.10;18.00;;;;;;;17.26;100.00;99516.55;110433;1262;22324;-57
2023/07/01 03:42:13;;;;;;;32.00;17.70;;;;;;;17.29;100.00;99518.41;110370;1268;22193;-56
2023/07/01 03:44:44;;;;;;;35.30;17.40;;;;;;;17.30;100.00;99524.19;110407;1265;22177;-59
2023/07/01 03:47:15;;;;;;;39.90;17.40;;;;;;;17.30;100.00;99527.58;110380;1268;22410;-58
2023/07/01 03:49:46;;;;;;;38.60;17.80;;;;;;;17.30;100.00;99534.18;110431;1276;22374;-59
2023/07/01 03:52:17;;;;;;;42.40;18.20;;;;;;;17.30;100.00;99529.98;110428;1268;22178;-58
2023/07/01 03:54:48;;;;;;;31.90;16.40;;;;;;;17.31;100.00;99528.36;110403;1268;22115;-58
2023/07/01 03:57:19;;;;;;;33.90;17.20;;;;;;;17.34;100.00;99532.51;110391;1268;23019;-56
2023/07/01 03:59:50;;;;;;;35.90;16.90;;;;;;;17.36;100.00;99533.85;110402;1265;22786;-56
2023/07/01 04:02:21;;;;;;;33.20;17.30;;;;;;;17.36;100.00;99533.81;110435;1268;22289;-59
2023/07/01 04:04:51;;;;;;;35.30;18.20;;;;;;;17.36;100.00;99529.91;110385;1269;22223;-59
2023/07/01 04:07:22;;;;;;;33.80;17.50;;;;;;;17.38;100.00;99530.64;110431;1261;22172;-58
2023/07/01 04:09:53;;;;;;;34.80;17.90;;;;;;;17.40;100.00;99528.48;110449;1269;22316;-58
2023/07/01 04:12:24;;;;;;;33.40;16.10;;;;;;;17.43;100.00;99531.77;110421;1272;23093;-58
2023/07/01 04:14:55;;;;;;;37.20;17.00;;;;;;;17.44;100.00;99527.38;110453;1262;22386;-58
2023/07/01 04:17:26;;;;;;;32.40;17.00;;;;;;;17.46;100.00;99527.29;110400;1269;22428;-59
2023/07/01 04:19:57;;;;;;;37.20;16.30;;;;;;;17.48;100.00;99527.67;110440;1269;22326;-59
2023/07/01 04:22:28;;;;;;;35.40;16.80;;;;;;;17.50;100.00;99523.02;110388;1268;22141;-58
2023/07/01 04:24:59;;;;;;;33.70;17.30;;;;;;;17.54;100.00;99519.05;110418;1268;22364;-58
2023/07/01 04:27:30;;;;;;;37.10;18.10;;;;;;;17.58;100.00;99517.10;110399;1269;22174;-59
2023/07/01 04:30:01;;;;;;;37.50;19.20;;;;;;;17.61;100.00;99520.38;110432;1268;22073;-57
2023/07/01 04:32:32;;;;;;;38.00;18.90;;;;;;;17.63;100.00;99516.48;110434;1268;22191;-57
2023/07/01 04:35:03;;;;;;;33.30;18.40;;;;;;;17.65;100.00;99515.69;110404;1276;22164;-58
2023/07/01 04:37:34;;;;;;;33.80;18.20;;;;;;;17.66;100.00;99517.05;110418;1265;22276;-56
2023/07/01 04:40:05;;;;;;;36.70;18.10;;;;;;;17.68;100.00;99513.92;110390;1265;22157;-56
2023/07/01 04:42:36;;;;;;;36.20;17.70;;;;;;;17.72;100.00;99512.21;110414;1264;23104;-58
2023/07/01 04:45:10;;;;;;;29.80;16.10;;;;;;;17.74;100.00;99507.90;110451;1264;22230;-58
2023/07/01 04:47:43;;;;;;;34.90;17.20;;;;;;;17.76;100.00;99510.97;110440;1268;22367;-58
2023/07/01 04:50:14;;;;;;;37.00;17.00;;;;;;;17.79;100.00;99514.20;110475;1259;22444;-58
2023/07/01 04:52:46;;;;;;;35.40;17.40;;;;;;;17.83;100.00;99517.56;110412;1276;22880;-59
2023/07/01 04:55:18;;;;;;;33.10;16.30;;;;;;;17.85;100.00;99518.64;110440;1268;22204;-59
2023/07/01 04:57:51;;;;;;;32.80;16.50;;;;;;;17.87;100.00;99517.89;110397;1272;22892;-56
2023/07/01 05:00:22;;;;;;;33.40;16.50;;;;;;;17.89;100.00;99519.73;110422;1264;22112;-57
2023/07/01 05:02:53;;;;;;;34.60;17.00;;;;;;;17.89;100.00;99519.52;110401;1268;22341;-59
2023/07/01 05:05:24;;;;;;;33.70;17.20;;;;;;;17.90;100.00;99515.66;110404;1264;22183;-59
2023/07/01 05:07:55;;;;;;;36.30;18.60;;;;;;;17.92;100.00;99520.76;110411;1269;22199;-58
2023/07/01 05:10:26;;;;;;;34.00;16.30;;;;;;;17.92;100.00;99516.84;110402;1273;22295;-58
2023/07/01 05:12:58;;;;;;;36.70;18.00;;;;;;;17.92;100.00;99516.02;110397;1265;22687;-58
2023/07/01 05:15:29;;;;;;;35.20;16.70;;;;;;;17.95;100.00;99513.03;110424;1265;22130;-59
2023/07/01 05:17:59;;;;;;;34.10;16.20;;;;;;;17.99;100.00;99511.95;110382;1268;22152;-59
2023/07/01 05:20:30;;;;;;;37.20;17.10;;;;;;;18.05;100.00;99510.70;110420;1269;23519;-58
2023/07/01 05:23:01;;;;;;;34.40;16.50;;;;;;;18.10;100.00;99517.42;110442;1276;22405;-58
2023/07/01 05:25:32;;;;;;;32.70;17.50;;;;;;;18.13;100.00;99519.97;106295;1264;5407916;-58
2023/07/01 05:28:03;;;;;;;33.10;16.80;;;;;;;18.17;100.00;99516.37;110406;1265;22924;-59
2023/07/01 05:30:34;;;;;;;34.00;16.20;;;;;;;18.21;100.00;99511.59;110424;1265;22254;-60
2023/07/01 05:33:05;;;;;;;39.60;17.40;;;;;;;18.26;100.00;99516.46;110411;1272;22259;-60
2023/07/01 05:35:37;;;;;;;36.00;16.10;;;;;;;18.31;100.00;99522.25;110392;1269;23006;-60
2023/07/01 05:38:11;;;;;;;33.80;15.90;;;;;;;18.35;100.00;99521.68;110389;1260;22362;-60
2023/07/01 05:40:42;;;;;;;30.30;16.00;;;;;;;18.38;100.00;99519.93;110369;1273;22167;-60
2023/07/01 05:43:13;;;;;;;34.80;17.00;;;;;;;18.40;100.00;99522.55;109378;1268;24276;-60
2023/07/01 05:45:45;;;;;;;33.90;15.70;;;;;;;18.42;100.00;99520.45;106489;1274;22529;-58
2023/07/01 05:48:16;;;;;;;34.30;15.20;;;;;;;18.45;100.00;99520.77;106399;1269;24273;-59
2023/07/01 05:50:46;;;;;;;32.40;14.90;;;;;;;18.44;100.00;99523.82;106435;1272;22537;-58
2023/07/01 05:53:17;;;;;;;33.00;15.60;;;;;;;18.43;100.00;99524.14;106406;1275;22543;-59
2023/07/01 05:55:48;;;;;;;31.10;15.70;;;;;;;18.41;100.00;99531.61;106518;1276;24399;-56
2023/07/01 05:58:19;;;;;;;33.00;15.10;;;;;;;18.42;100.00;99531.23;106476;1274;22574;-59
2023/07/01 06:00:50;;;;;;;30.20;15.50;;;;;;;18.43;100.00;99532.77;106420;1268;22516;-59
2023/07/01 06:03:21;;;;;;;35.60;15.90;;;;;;;18.43;100.00;99536.06;106430;1268;25410;-58
2023/07/01 06:05:52;;;;;;;28.80;14.00;;;;;;;18.41;100.00;99532.75;106481;1273;25530;-58
2023/07/01 06:08:23;;;;;;;37.60;17.70;;;;;;;18.40;100.00;99533.65;106494;1253;25548;-58
2023/07/01 06:10:54;;;;;;;31.50;15.80;;;;;;;18.42;100.00;99528.36;106432;1276;22637;-59
2023/07/01 06:13:25;;;;;;;32.20;15.70;;;;;;;18.45;100.00;99526.48;106463;1276;22527;-58
2023/07/01 06:15:56;;;;;;;33.20;15.70;;;;;;;18.47;100.00;99525.33;106471;1276;22585;-58
2023/07/01 06:18:27;;;;;;;34.30;16.00;;;;;;;18.51;100.00;99524.84;106454;1272;22570;-59
2023/07/01 06:21:03;;;;;;;32.70;15.30;;;;;;;18.53;100.00;99519.02;106449;1273;24355;-56
2023/07/01 06:23:35;;;;;;;36.90;15.90;;;;;;;18.59;100.00;99520.68;106540;1275;26523;-58
2023/07/01 06:26:06;;;;;;;29.70;15.50;;;;;;;18.63;100.00;99521.71;106466;1275;22491;-58
2023/07/01 06:28:37;;;;;;;36.50;15.50;;;;;;;18.68;100.00;99518.55;106406;1276;23344;-56
2023/07/01 06:31:08;;;;;;;33.80;15.80;;;;;;;18.72;100.00;99521.89;106406;1274;24226;-58
2023/07/01 06:33:40;;;;;;;31.10;15.30;;;;;;;18.74;100.00;99525.03;106485;1268;24204;-58
2023/07/01 06:36:12;;;;;;;33.70;16.00;;;;;;;18.76;100.00;99528.37;106409;1265;24369;-58
2023/07/01 06:38:43;;;;;;;32.90;15.90;;;;;;;18.81;100.00;99530.01;106500;1276;22546;-58
2023/07/01 06:41:15;;;;;;;35.80;16.10;;;;;;;18.86;100.00;99530.85;106471;1269;24224;-60
2023/07/01 06:43:46;;;;;;;32.90;15.40;;;;;;;18.91;100.00;99529.33;106380;1276;22521;-57
2023/07/01 06:46:17;;;;;;;34.10;15.80;;;;;;;18.95;100.00;99536.52;106445;1265;22517;-59
2023/07/01 06:48:48;;;;;;;32.90;15.80;;;;;;;18.95;100.00;99533.21;110435;1265;22190;-58
2023/07/01 06:51:20;;;;;;;32.40;14.90;;;;;;;18.96;100.00;99536.16;110455;1265;22323;-63
2023/07/01 06:53:51;;;;;;;31.80;15.30;;;;;;;18.98;100.00;99535.20;107114;1276;22590;-59
2023/07/01 06:56:22;;;;;;;31.80;14.60;;;;;;;19.01;100.00;99541.29;106479;1275;24277;-59
2023/07/01 06:58:53;;;;;;;33.50;15.80;;;;;;;19.04;99.91;99534.64;106350;1276;22558;-59
2023/07/01 07:01:24;;;;;;;35.10;16.40;;;;;;;19.03;99.91;99537.12;106633;1263;25572;-59
2023/07/01 07:03:56;;;;;;;32.00;15.40;;;;;;;19.04;99.59;99534.00;106389;1276;24254;-58
2023/07/01 07:06:26;;;;;;;34.10;15.90;;;;;;;19.07;99.46;99534.44;106463;1276;24706;-59
2023/07/01 07:08:57;;;;;;;31.00;15.40;;;;;;;19.09;99.28;99536.25;106560;1273;24238;-58
2023/07/01 07:11:29;;;;;;;28.40;14.10;;;;;;;19.07;98.98;99533.56;106571;1269;22507;-59
2023/07/01 07:14:00;;;;;;;30.40;13.00;;;;;;;19.08;98.94;99535.88;106512;1276;22538;-57
2023/07/01 07:16:34;;;;;;;27.60;13.30;;;;;;;19.09;98.61;99536.18;106636;1275;25376;-59
2023/07/01 07:19:05;;;;;;;29.40;12.60;;;;;;;19.11;98.66;99530.84;106624;1268;22586;-57
2023/07/01 07:21:36;;;;;;;29.10;12.00;;;;;;;19.14;98.83;99532.15;106506;1274;22539;-58
2023/07/01 07:24:08;;;;;;;26.10;12.50;;;;;;;19.17;98.67;99530.92;110413;1272;22961;-60
2023/07/01 07:26:42;;;;;;;26.70;12.20;;;;;;;19.19;98.20;99529.91;110471;1265;22170;-60
2023/07/01 07:29:13;;;;;;;27.90;12.10;;;;;;;19.21;98.22;99532.27;110464;1275;22453;-60
2023/07/01 07:31:44;;;;;;;31.10;12.70;;;;;;;19.23;98.18;99530.88;110434;1276;22160;-60
2023/07/01 07:34:15;;;;;;;27.10;11.70;;;;;;;19.23;97.90;99536.84;110420;1271;23141;-60
2023/07/01 07:36:46;;;;;;;25.00;11.40;;;;;;;19.25;97.73;99533.65;110451;1272;22130;-59
2023/07/01 07:39:17;;;;;;;28.90;13.10;;;;;;;19.27;98.17;99535.44;110426;1268;22659;-60
2023/07/01 07:41:49;;;;;;;26.20;12.90;;;;;;;19.30;98.07;99533.48;110474;1272;22923;-60
2023/07/01 07:44:20;;;;;;;30.10;13.60;;;;;;;19.34;97.57;99533.01;110426;1268;22371;-59
2023/07/01 07:46:51;;;;;;;30.80;13.30;;;;;;;19.35;97.39;99532.31;106865;1276;24200;-59
2023/07/01 07:49:22;;;;;;;28.10;13.10;;;;;;;19.38;97.35;99534.71;106568;1266;22581;-58
2023/07/01 07:51:53;;;;;;;28.00;13.60;;;;;;;19.41;97.49;99533.29;106473;1276;22529;-58
2023/07/01 07:54:24;;;;;;;27.80;13.80;;;;;;;19.42;97.21;99534.50;110377;1265;22203;-60
2023/07/01 07:56:58;;;;;;;28.70;13.80;;;;;;;19.39;96.86;99533.95;110422;1272;22336;-60
2023/07/01 07:59:29;;;;;;;28.70;13.50;;;;;;;19.38;96.80;99529.83;110429;1269;22927;-60
2023/07/01 08:02:01;;;;;;;27.80;12.40;;;;;;;19.38;97.13;99525.20;110331;1270;22302;-59
2023/07/01 08:04:32;;;;;;;29.60;12.50;;;;;;;19.40;97.02;99529.77;110462;1265;22206;-60
2023/07/01 08:07:03;;;;;;;28.20;12.50;;;;;;;19.40;97.00;99530.23;110446;1263;22413;-59
2023/07/01 08:09:34;;;;;;;29.60;13.90;;;;;;;19.43;97.46;99529.67;108840;1260;25414;-59
2023/07/01 08:12:07;;;;;;;30.40;14.30;;;;;;;19.46;97.58;99528.88;106453;1276;25672;-58
2023/07/01 08:14:38;;;;;;;26.80;13.50;;;;;;;19.49;97.71;99525.02;110436;1260;22132;-60
2023/07/01 08:17:09;;;;;;;36.10;13.70;;;;;;;19.52;97.80;99522.67;106984;1259;22600;-59
2023/07/01 08:19:40;;;;;;;34.80;14.40;;;;;;;19.57;98.01;99519.17;106403;1276;25446;-62
2023/07/01 08:22:10;;;;;;;35.70;16.90;;;;;;;19.61;97.81;99512.60;106348;1274;22957;-60
2023/07/01 08:24:42;;;;;;;30.70;14.20;;;;;;;19.63;97.68;99516.02;106384;1261;22527;-61
2023/07/01 08:27:13;;;;;;;38.70;15.50;;;;;;;19.67;97.65;99516.42;106428;1269;22516;-61
2023/07/01 08:29:44;;;;;;;31.00;14.90;;;;;;;19.70;97.66;99517.81;106273;1253;25329;-60
2023/07/01 08:32:15;;;;;;;30.60;14.40;;;;;;;19.73;97.38;99515.04;106353;1268;22811;-59
2023/07/01 08:34:46;;;;;;;28.60;13.10;;;;;;;19.75;97.27;99517.12;106370;1260;22583;-61
2023/07/01 08:37:16;;;;;;;25.20;11.70;;;;;;;19.75;96.51;99519.80;106263;1268;22580;-60
2023/07/01 08:39:47;;;;;;;31.50;14.60;;;;;;;19.72;96.10;99522.39;106322;1268;23029;-60
2023/07/01 08:42:23;;;;;;;31.70;14.40;;;;;;;19.72;96.43;99525.77;106393;1269;22520;-60
2023/07/01 08:44:56;;;;;;;31.30;12.90;;;;;;;19.72;96.46;99521.52;106501;1270;24232;-60
2023/07/01 08:47:28;;;;;;;28.50;13.40;;;;;;;19.73;96.02;99518.88;106244;1269;24262;-59
2023/07/01 08:50:05;;;;;;;34.70;13.70;;;;;;;19.72;96.05;99518.98;106176;1257;23052;-59
2023/07/01 08:52:43;;;;;;;27.70;13.60;;;;;;;19.73;95.73;99516.51;106333;1262;24234;-60
2023/07/01 08:55:14;;;;;;;26.30;12.80;;;;;;;19.74;95.31;99516.70;106657;1276;25742;-59
2023/07/01 08:57:45;;;;;;;28.70;12.00;;;;;;;19.75;95.51;99518.39;108150;1272;22510;-60
2023/07/01 09:00:17;;;;;;;28.60;12.60;;;;;;;19.79;95.31;99515.66;106188;1269;25294;-62
2023/07/01 09:02:51;;;;;;;29.30;13.70;;;;;;;19.85;95.66;99515.45;106264;1274;25344;-60
2023/07/01 09:05:22;;;;;;;30.70;12.50;;;;;;;19.93;95.66;99514.65;106281;1273;24335;-62
2023/07/01 09:07:53;;;;;;;28.50;12.80;;;;;;;19.99;95.37;99513.35;106322;1259;22528;-60
2023/07/01 09:10:25;;;;;;;28.50;11.70;;;;;;;20.01;94.38;99512.30;110329;1268;22221;-63
2023/07/01 09:13:09;;;;;;;24.90;12.10;;;;;;;20.04;94.50;99512.35;110375;1262;22120;-62
2023/07/01 09:15:45;;;;;;;26.80;12.50;;;;;;;20.10;94.54;99509.11;110301;1264;22231;-63
2023/07/01 09:18:24;;;;;;;28.60;12.20;;;;;;;20.14;94.06;99514.03;110403;1265;22373;-62
2023/07/01 09:20:56;;;;;;;24.20;11.40;;;;;;;20.18;93.85;99513.77;110418;1265;22909;-62
2023/07/01 09:23:30;;;;;;;28.40;12.70;;;;;;;20.19;93.55;99511.38;110464;1269;22844;-62
2023/07/01 09:26:19;;;;;;;26.80;11.70;;;;;;;20.21;93.27;99512.16;110421;1265;22774;-61
2023/07/01 09:28:51;;;;;;;27.50;12.80;;;;;;;20.24;93.48;99507.70;109270;1272;22531;-61
2023/07/01 09:31:24;;;;;;;30.30;12.30;;;;;;;20.28;93.50;99507.98;110425;1265;22940;-63
2023/07/01 09:34:03;;;;;;;27.90;12.10;;;;;;;20.32;93.57;99506.39;110423;1271;22315;-61
2023/07/01 09:36:36;;;;;;;25.40;11.60;;;;;;;20.34;93.32;99505.87;110424;1268;22238;-62
2023/07/01 09:39:07;;;;;;;22.80;11.00;;;;;;;20.35;93.08;99509.35;110428;1265;22855;-62
2023/07/01 09:41:38;;;;;;;24.30;9.70;;;;;;;20.35;92.76;99508.64;110421;1265;22215;-61
2023/07/01 09:44:19;;;;;;;28.30;11.40;;;;;;;20.35;92.57;99502.81;109880;1261;36137;-62
2023/07/01 09:46:52;;;;;;;24.50;10.80;;;;;;;20.37;93.02;99491.74;110024;1272;22214;-63
2023/07/01 09:49:36;;;;;;;26.40;11.40;;;;;;;20.46;93.72;99490.97;110031;1264;22152;-62
2023/07/01 09:52:08;;;;;;;23.50;10.90;;;;;;;20.57;93.86;99479.85;109901;1276;22958;-62
2023/07/01 09:54:42;;;;;;;25.10;10.80;;;;;;;20.68;93.25;99477.05;110008;1268;22180;-60
2023/07/01 09:57:13;;;;;;;22.70;10.50;;;;;;;20.78;92.66;99474.70;110070;1267;22303;-62
2023/07/01 09:59:46;;;;;;;23.30;11.00;;;;;;;20.89;92.68;99472.30;109915;1277;22325;-62
2023/07/01 10:02:18;;;;;;;21.70;10.00;;;;;;;21.02;92.91;99470.73;110049;1271;22361;-62
2023/07/01 10:04:49;;;;;;;26.00;10.30;;;;;;;21.12;92.40;99470.64;109951;1279;22967;-62
2023/07/01 10:07:21;;;;;;;24.60;11.10;;;;;;;21.22;92.19;99467.93;110090;1268;22140;-61
2023/07/01 10:09:53;;;;;;;36.60;11.00;;;;;;;21.33;91.92;99466.50;110075;1274;22923;-63
2023/07/01 10:12:25;;;;;;;22.30;10.00;;;;;;;21.42;91.11;99470.15;110063;1276;22220;-63
2023/07/01 10:14:59;;;;;;;24.50;9.80;;;;;;;21.48;90.75;99468.77;110087;1261;22311;-60
2023/07/01 10:17:52;;;;;;;25.70;11.10;;;;;;;21.56;90.41;99464.57;110096;1271;22206;-62
2023/07/01 10:20:34;;;;;;;27.70;11.10;;;;;;;21.58;90.35;99463.49;110092;1264;22851;-62
2023/07/01 10:23:07;;;;;;;28.50;12.00;;;;;;;21.62;90.56;99461.63;110064;1279;22197;-63
2023/07/01 10:25:40;;;;;;;23.80;10.60;;;;;;;21.64;90.14;99458.54;110062;1279;22936;-61
2023/07/01 10:28:12;;;;;;;23.70;9.90;;;;;;;21.66;89.69;99456.15;110103;1263;22193;-62
2023/07/01 10:31:15;;;;;;;26.30;10.30;;;;;;;21.71;89.86;99452.76;110099;1275;22174;-62
2023/07/01 10:33:56;;;;;;;21.20;9.00;;;;;;;21.79;89.40;99449.98;110074;1272;23500;-62
2023/07/01 10:36:28;;;;;;;17.50;7.50;;;;;;;21.84;88.94;99452.20;110027;1276;22153;-63
2023/07/01 10:39:34;;;;;;;23.20;8.80;;;;;;;21.86;88.28;99448.44;110046;1276;23176;-62
2023/07/01 10:42:33;;;;;;;19.40;6.80;;;;;;;21.87;87.71;99445.54;110076;1268;22207;-62
2023/07/01 10:45:35;;;;;;;26.00;9.30;;;;;;;21.88;87.74;99443.34;110098;1267;22742;-62
2023/07/01 10:48:19;;;;;;;20.00;7.60;;;;;;;21.92;87.13;99442.15;109759;1279;22248;-63
2023/07/01 10:51:05;;;;;;;24.00;9.40;;;;;;;21.93;86.90;99435.25;106339;1277;24371;-62
2023/07/01 10:53:59;;;;;;;23.30;9.60;;;;;;;21.95;87.05;99433.49;109743;1279;22213;-63
2023/07/01 10:56:33;;;;;;;23.70;9.30;;;;;;;21.98;86.61;99432.94;109751;1270;22205;-62
2023/07/01 10:59:25;;;;;;;24.60;9.30;;;;;;;21.97;86.51;99433.64;109784;1283;22205;-62
2023/07/01 11:02:00;;;;;;;24.10;7.50;;;;;;;21.95;86.46;99426.93;109752;1283;22268;-62
2023/07/01 11:05:03;;;;;;;21.70;9.10;;;;;;;21.99;86.49;99423.51;109795;1280;22197;-62
2023/07/01 11:07:36;;;;;;;23.10;9.50;;;;;;;22.05;86.54;99415.23;109776;1280;22842;-62
2023/07/01 11:10:11;;;;;;;25.80;9.00;;;;;;;22.10;86.06;99413.85;109766;1282;22209;-62
2023/07/01 11:12:42;;;;;;;19.10;8.00;;;;;;;22.14;85.68;99415.59;109795;1273;22268;-63
2023/07/01 11:18:01;;;;;;;21.70;8.80;;;;;;;22.17;85.66;99409.54;99669;1274;955462;-78
2023/07/01 11:20:49;;;;;;;22.90;7.80;;;;;;;22.31;85.90;99409.73;107485;1281;23935;-78
2023/07/01 11:23:22;;;;;;;16.90;7.50;;;;;;;22.47;85.24;99402.59;107703;1274;22485;-78
2023/07/01 11:25:54;;;;;;;20.20;8.00;;;;;;;22.60;84.57;99397.41;110055;1276;22226;-79
2023/07/01 11:28:35;;;;;;;15.50;6.10;;;;;;;22.69;83.83;99390.10;109926;1275;22154;-79
2023/07/01 11:31:33;;;;;;;21.40;8.00;;;;;;;22.81;84.00;99386.55;109732;1281;22894;-79
2023/07/01 11:40:17;;;;;;;20.00;7.60;;;;;;;23.07;83.38;99379.63;88661;1278;976473;-79
2023/07/01 11:42:49;;;;;;;17.40;7.00;;;;;;;23.13;82.50;99376.67;107955;1276;22490;-82